createdAt,value
2022-11-05T00:01:42.629Z,7.70
2022-11-05T00:04:31.040Z,7.80
2022-11-05T00:07:47.092Z,7.80
2022-11-05T00:10:17.933Z,7.80
2022-11-05T00:13:04.238Z,7.80
2022-11-05T00:15:50.698Z,7.90
2022-11-05T00:18:29.262Z,7.90
2022-11-05T00:21:30.857Z,7.90
2022-11-05T00:24:21.737Z,8.00
2022-11-05T00:26:51.897Z,8.00
2022-11-05T00:29:28.346Z,8.00
2022-11-05T00:36:26.968Z,7.90
2022-11-05T00:44:28.378Z,7.90
2022-11-05T00:51:48.456Z,7.80
2022-11-05T01:04:33.901Z,7.70
2022-11-05T01:07:41.516Z,7.70
2022-11-05T01:10:50.578Z,7.70
2022-11-05T01:23:08.936Z,7.50
2022-11-05T01:25:54.964Z,7.50
2022-11-05T01:28:35.676Z,7.40
2022-11-05T01:31:03.842Z,7.40
2022-11-05T01:34:07.991Z,7.40
2022-11-05T01:36:35.782Z,7.40
2022-11-05T01:39:09.532Z,7.40
2022-11-05T01:41:49.443Z,7.40
2022-11-05T01:44:36.014Z,7.30
2022-11-05T01:47:03.910Z,7.30
2022-11-05T01:49:34.820Z,7.30
2022-11-05T01:52:03.748Z,7.30
2022-11-05T01:54:32.387Z,7.30
2022-11-05T01:57:02.214Z,7.30
2022-11-05T01:59:35.264Z,7.20
2022-11-05T02:02:04.051Z,7.20
2022-11-05T02:04:36.714Z,7.20
2022-11-05T02:07:05.729Z,7.20
2022-11-05T02:09:53.781Z,7.20
2022-11-05T02:12:21.976Z,7.20
2022-11-05T02:14:49.796Z,7.20
2022-11-05T02:17:25.020Z,7.10
2022-11-05T02:20:02.106Z,7.10
2022-11-05T02:22:32.772Z,7.10
2022-11-05T02:25:08.273Z,7.10
2022-11-05T02:27:47.951Z,7.00
2022-11-05T02:30:34.407Z,7.00
2022-11-05T02:33:07.843Z,7.00
2022-11-05T02:35:35.765Z,7.00
2022-11-05T02:38:06.415Z,7.00
2022-11-05T02:40:34.188Z,6.90
2022-11-05T02:43:08.959Z,6.90
2022-11-05T02:45:46.449Z,6.90
2022-11-05T02:48:14.111Z,6.90
2022-11-05T02:51:00.287Z,6.90
2022-11-05T02:53:34.007Z,7.00
2022-11-05T02:56:06.234Z,7.00
2022-11-05T02:58:35.043Z,7.00
2022-11-05T03:03:53.144Z,7.00
2022-11-05T03:06:39.774Z,7.00
2022-11-05T03:09:19.818Z,7.00
2022-11-05T03:11:47.646Z,7.00
2022-11-05T03:14:18.359Z,7.10
2022-11-05T03:17:06.170Z,7.10
2022-11-05T03:19:40.413Z,7.10
2022-11-05T03:22:21.012Z,7.20
2022-11-05T03:24:51.841Z,7.30
2022-11-05T03:27:23.847Z,7.30
2022-11-05T03:29:53.524Z,7.30
2022-11-05T03:32:22.558Z,7.30
2022-11-05T03:34:52.153Z,7.30
2022-11-05T03:37:27.675Z,7.40
2022-11-05T03:39:59.025Z,7.40
2022-11-05T03:42:28.523Z,7.40
2022-11-05T03:44:58.466Z,7.50
2022-11-05T03:47:30.611Z,7.50
2022-11-05T03:49:58.201Z,7.50
2022-11-05T03:52:28.027Z,7.50
2022-11-05T03:54:56.597Z,7.60
2022-11-05T03:57:26.054Z,7.60
2022-11-05T03:59:54.099Z,7.60
2022-11-05T04:02:23.881Z,7.60
2022-11-05T04:04:52.290Z,7.60
2022-11-05T04:07:38.691Z,7.60
2022-11-05T04:10:25.189Z,7.70
2022-11-05T04:13:11.779Z,7.70
2022-11-05T04:15:58.643Z,7.70
2022-11-05T04:18:26.404Z,7.80
2022-11-05T05:46:23.357Z,7.80
2022-11-05T19:47:59.229Z,6.10
2022-11-05T20:33:56.651Z,5.00
2022-11-05T21:30:20.999Z,3.90
2022-11-05T22:30:22.174Z,3.60
2022-11-05T22:32:49.698Z,3.60
2022-11-05T22:35:17.279Z,3.60
2022-11-05T22:37:44.603Z,3.60
2022-11-05T22:40:12.226Z,3.60
2022-11-05T22:42:39.793Z,3.70
2022-11-05T22:45:07.622Z,3.60
2022-11-05T22:47:35.282Z,3.60
2022-11-05T22:50:03.892Z,3.60
2022-11-05T22:52:32.844Z,3.50
2022-11-05T22:55:02.723Z,3.50
2022-11-05T22:57:30.125Z,3.40
2022-11-05T22:59:57.575Z,3.50
2022-11-05T23:02:25.093Z,3.50
2022-11-05T23:04:52.647Z,3.50
2022-11-05T23:07:38.870Z,3.50
2022-11-05T23:10:25.068Z,3.60
2022-11-05T23:12:55.324Z,3.60
2022-11-05T23:15:41.701Z,3.60
2022-11-05T23:18:28.222Z,3.70
2022-11-05T23:21:17.861Z,3.70
2022-11-05T23:24:05.885Z,3.80
2022-11-05T23:26:52.329Z,3.70
2022-11-05T23:29:21.466Z,3.80
2022-11-05T23:32:08.415Z,3.80
2022-11-05T23:34:37.243Z,3.80
2022-11-05T23:37:23.742Z,3.80
2022-11-05T23:39:51.360Z,3.90
2022-11-05T23:42:37.562Z,3.90
2022-11-05T23:45:23.733Z,3.90
2022-11-05T23:48:10.233Z,3.90
2022-11-05T23:50:40.015Z,3.90
2022-11-05T23:53:08.048Z,3.90
2022-11-05T23:55:35.809Z,3.80
2022-11-05T23:58:03.359Z,3.80
